createdAt,value
2022-11-06T00:01:45.920Z,9.63
2022-11-06T00:04:13.184Z,9.64
2022-11-06T00:06:49.110Z,9.59
2022-11-06T00:09:19.506Z,9.57
2022-11-06T00:11:48.199Z,9.58
2022-11-06T00:14:16.123Z,9.60
2022-11-06T00:16:44.456Z,9.62
2022-11-06T00:19:11.895Z,9.57
2022-11-06T00:21:39.337Z,9.56
2022-11-06T00:24:08.067Z,9.53
2022-11-06T00:26:35.574Z,9.49
2022-11-06T00:29:03.901Z,9.47
2022-11-06T00:31:33.965Z,9.52
2022-11-06T00:34:02.852Z,9.55
2022-11-06T00:36:31.076Z,9.67
2022-11-06T00:38:59.285Z,9.68
2022-11-06T00:41:27.312Z,9.64
2022-11-06T00:43:57.152Z,9.60
2022-11-06T00:46:24.358Z,9.52
2022-11-06T00:48:53.265Z,9.45
2022-11-06T00:51:25.679Z,9.38
2022-11-06T00:53:57.678Z,9.31
2022-11-06T00:56:25.708Z,9.35
2022-11-06T00:58:53.269Z,9.40
2022-11-06T01:01:36.101Z,9.41
2022-11-06T01:04:06.841Z,9.36
2022-11-06T01:06:37.426Z,9.28
2022-11-06T01:09:05.789Z,9.21
2022-11-06T01:11:59.199Z,9.20
2022-11-06T01:14:23.738Z,9.22
2022-11-06T01:16:51.384Z,9.12
2022-11-06T01:19:20.327Z,9.12
2022-11-06T01:21:49.148Z,9.11
2022-11-06T01:24:19.078Z,9.05
2022-11-06T01:27:12.113Z,9.03
2022-11-06T01:29:33.654Z,8.95
2022-11-06T01:32:03.325Z,8.99
2022-11-06T01:34:30.469Z,8.96
2022-11-06T01:36:57.243Z,8.99
2022-11-06T01:39:24.121Z,8.98
2022-11-06T01:41:53.497Z,9.04
2022-11-06T01:44:34.999Z,9.07
2022-11-06T01:47:26.230Z,8.99
2022-11-06T01:50:01.492Z,9.03
2022-11-06T01:52:37.795Z,9.10
2022-11-06T01:55:33.485Z,9.09
2022-11-06T01:58:03.518Z,9.08
2022-11-06T02:00:31.263Z,9.06
2022-11-06T02:03:02.795Z,9.14
2022-11-06T02:05:32.157Z,9.13
2022-11-06T02:08:01.105Z,9.22
2022-11-06T02:10:46.270Z,9.12
2022-11-06T02:13:57.440Z,9.20
2022-11-06T02:17:18.516Z,9.12
2022-11-06T02:20:19.592Z,9.07
2022-11-06T02:23:25.991Z,9.01
2022-11-06T02:26:13.239Z,8.85
2022-11-06T02:28:47.912Z,8.66
2022-11-06T02:31:21.126Z,8.70
2022-11-06T02:33:54.770Z,8.65
2022-11-06T02:36:29.000Z,8.61
2022-11-06T02:39:01.961Z,8.76
2022-11-06T02:41:34.359Z,8.74
2022-11-06T02:44:06.310Z,8.77
2022-11-06T02:46:41.638Z,8.73
2022-11-06T02:49:20.293Z,8.77
2022-11-06T02:51:50.893Z,8.73
2022-11-06T02:54:21.608Z,8.75
2022-11-06T02:56:53.186Z,8.19
2022-11-06T02:59:51.192Z,8.79
2022-11-06T03:02:44.376Z,8.80
2022-11-06T03:05:23.761Z,8.81
2022-11-06T03:08:14.013Z,9.00
2022-11-06T03:11:06.500Z,9.00
2022-11-06T03:13:58.545Z,8.98
2022-11-06T03:16:56.465Z,8.89
2022-11-06T03:19:32.517Z,8.87
2022-11-06T03:22:26.054Z,8.84
2022-11-06T03:25:04.730Z,8.84
2022-11-06T03:27:47.275Z,8.80
2022-11-06T03:30:16.713Z,8.75
2022-11-06T03:33:12.043Z,8.80
2022-11-06T03:35:48.846Z,8.71
2022-11-06T03:38:24.257Z,8.64
2022-11-06T03:40:55.385Z,8.69
2022-11-06T03:43:27.173Z,8.68
2022-11-06T03:45:56.866Z,8.78
2022-11-06T03:48:32.087Z,8.69
2022-11-06T03:51:02.409Z,8.81
2022-11-06T03:53:46.986Z,8.83
2022-11-06T03:56:24.469Z,8.76
2022-11-06T03:58:52.132Z,8.80
2022-11-06T04:01:24.439Z,8.80
2022-11-06T04:04:07.305Z,8.76
2022-11-06T04:06:46.438Z,8.68
2022-11-06T04:09:34.417Z,8.82
2022-11-06T04:12:22.930Z,8.83
2022-11-06T04:14:55.296Z,8.81
2022-11-06T04:17:26.431Z,8.76
2022-11-06T04:20:00.360Z,8.67
2022-11-06T04:22:54.415Z,8.68
2022-11-06T04:26:02.619Z,8.65
2022-11-06T04:29:06.880Z,8.63
2022-11-06T04:31:55.728Z,8.57
2022-11-06T04:34:33.538Z,8.59
2022-11-06T04:37:09.834Z,8.56
2022-11-06T04:40:05.845Z,8.62
2022-11-06T04:42:41.371Z,8.63
2022-11-06T04:45:15.330Z,8.62
2022-11-06T04:47:44.297Z,8.64
2022-11-06T04:50:13.718Z,8.67
2022-11-06T04:52:41.784Z,8.67
2022-11-06T04:55:08.797Z,8.65
2022-11-06T04:57:35.837Z,8.66
2022-11-06T05:00:02.932Z,8.73
2022-11-06T05:02:30.139Z,8.70
2022-11-06T05:04:57.282Z,8.76
2022-11-06T05:07:24.473Z,8.72
2022-11-06T05:09:51.433Z,8.75
2022-11-06T05:12:18.358Z,8.63
2022-11-06T05:14:45.289Z,8.78
2022-11-06T05:17:13.353Z,8.77
2022-11-06T05:19:40.803Z,8.76
2022-11-06T05:22:26.490Z,8.61
2022-11-06T05:24:53.635Z,8.73
2022-11-06T05:27:20.446Z,8.69
2022-11-06T05:29:47.664Z,8.88
2022-11-06T05:32:14.666Z,8.95
2022-11-06T05:34:42.653Z,8.90
2022-11-06T05:37:09.465Z,8.89
2022-11-06T05:39:41.403Z,8.91
2022-11-06T05:42:09.181Z,8.97
2022-11-06T05:44:37.814Z,9.03
2022-11-06T05:47:04.849Z,9.23
2022-11-06T05:49:32.686Z,9.27
2022-11-06T05:51:59.685Z,9.33
2022-11-06T05:54:26.794Z,9.43
2022-11-06T05:56:53.956Z,9.58
2022-11-06T05:59:21.095Z,9.70
2022-11-06T06:01:48.166Z,9.71
2022-11-06T06:04:15.372Z,9.79
2022-11-06T06:06:42.501Z,9.82
2022-11-06T06:09:09.621Z,9.94
2022-11-06T06:11:36.695Z,10.07
2022-11-06T06:14:03.913Z,10.14
2022-11-06T06:16:31.229Z,10.26
2022-11-06T06:18:58.302Z,10.48
2022-11-06T06:21:25.177Z,10.66
2022-11-06T06:23:52.221Z,10.73
2022-11-06T06:26:20.821Z,10.88
2022-11-06T06:28:49.696Z,11.06
2022-11-06T06:31:16.895Z,11.18
2022-11-06T06:33:43.730Z,11.24
2022-11-06T06:36:11.242Z,11.47
2022-11-06T06:38:38.366Z,11.63
2022-11-06T06:41:07.373Z,11.71
2022-11-06T06:43:35.392Z,11.92
2022-11-06T06:46:04.335Z,12.14
2022-11-06T06:48:31.533Z,12.29
2022-11-06T06:51:02.597Z,12.39
2022-11-06T06:53:29.949Z,12.54
2022-11-06T06:56:00.266Z,12.71
2022-11-06T06:58:31.356Z,12.80
2022-11-06T07:01:04.246Z,12.88
2022-11-06T07:03:32.322Z,13.04
2022-11-06T07:05:59.257Z,13.18
2022-11-06T07:08:27.263Z,13.30
2022-11-06T07:11:01.805Z,13.35
2022-11-06T07:13:35.429Z,13.44
2022-11-06T07:16:08.122Z,13.47
2022-11-06T07:18:36.037Z,13.49
2022-11-06T07:21:07.966Z,13.52
2022-11-06T07:23:36.333Z,13.61
2022-11-06T07:26:04.456Z,13.69
2022-11-06T07:28:32.630Z,13.79
2022-11-06T07:31:01.051Z,13.95
2022-11-06T07:33:28.407Z,14.11
2022-11-06T07:35:55.802Z,14.16
2022-11-06T07:38:22.955Z,14.20
2022-11-06T07:40:50.043Z,14.21
2022-11-06T07:43:17.077Z,14.22
2022-11-06T07:45:44.956Z,14.28
2022-11-06T07:48:12.245Z,14.30
2022-11-06T07:50:39.492Z,14.57
2022-11-06T07:53:06.792Z,14.65
2022-11-06T07:55:37.776Z,14.87
2022-11-06T07:58:08.017Z,15.11
2022-11-06T08:00:35.166Z,15.20
2022-11-06T08:03:02.121Z,15.33
2022-11-06T08:05:29.254Z,15.32
2022-11-06T08:07:57.277Z,15.39
2022-11-06T08:10:24.383Z,15.41
2022-11-06T08:12:51.426Z,15.38
2022-11-06T08:15:18.658Z,15.40
2022-11-06T08:17:45.668Z,15.50
2022-11-06T08:20:12.763Z,15.30
2022-11-06T08:22:40.030Z,15.17
2022-11-06T08:25:07.885Z,14.96
2022-11-06T08:27:34.699Z,14.88
2022-11-06T08:30:02.181Z,14.90
2022-11-06T08:32:29.385Z,14.84
2022-11-06T08:34:56.758Z,14.72
2022-11-06T08:37:23.751Z,14.70
2022-11-06T08:39:50.807Z,14.70
2022-11-06T08:42:17.964Z,14.64
2022-11-06T08:44:44.847Z,14.72
2022-11-06T08:47:11.689Z,14.73
2022-11-06T08:49:38.880Z,14.88
2022-11-06T08:52:05.948Z,14.96
2022-11-06T08:54:32.989Z,15.15
2022-11-06T08:57:00.752Z,15.40
2022-11-06T08:59:28.021Z,15.54
2022-11-06T09:01:56.491Z,15.54
2022-11-06T09:04:23.567Z,15.64
2022-11-06T09:06:50.545Z,15.69
2022-11-06T09:09:17.572Z,15.64
2022-11-06T09:11:44.600Z,15.81
2022-11-06T09:14:12.526Z,15.80
2022-11-06T09:16:39.318Z,15.64
2022-11-06T09:19:06.318Z,15.59
2022-11-06T09:21:33.393Z,15.65
2022-11-06T09:24:00.554Z,15.68
2022-11-06T09:26:27.505Z,15.69
2022-11-06T09:28:54.469Z,15.71
2022-11-06T09:31:21.715Z,15.81
2022-11-06T09:33:48.661Z,15.81
2022-11-06T09:36:15.929Z,15.75
2022-11-06T09:38:42.872Z,15.83
2022-11-06T09:41:22.448Z,15.88
2022-11-06T09:44:06.176Z,15.89
2022-11-06T09:46:41.255Z,15.67
2022-11-06T09:49:31.256Z,16.02
2022-11-06T09:51:58.363Z,16.16
2022-11-06T09:54:49.676Z,16.27
2022-11-06T09:57:40.285Z,16.40
2022-11-06T10:00:12.185Z,16.69
2022-11-06T10:02:45.384Z,16.75
2022-11-06T10:05:28.181Z,16.93
2022-11-06T10:08:04.314Z,17.07
2022-11-06T10:10:43.588Z,17.08
2022-11-06T10:13:28.531Z,17.23
2022-11-06T10:16:07.866Z,17.43
2022-11-06T10:18:53.631Z,17.56
2022-11-06T10:21:20.387Z,17.51
2022-11-06T10:23:58.140Z,17.56
2022-11-06T10:26:38.264Z,17.56
2022-11-06T10:29:28.704Z,17.59
2022-11-06T10:31:55.709Z,17.51
2022-11-06T10:34:42.895Z,17.54
2022-11-06T10:37:22.797Z,17.63
2022-11-06T10:39:50.558Z,17.57
2022-11-06T10:42:20.810Z,17.48
2022-11-06T10:45:04.057Z,17.42
2022-11-06T10:47:53.235Z,17.54
2022-11-06T10:50:20.700Z,17.57
2022-11-06T10:53:05.756Z,17.58
2022-11-06T10:55:36.552Z,17.65
2022-11-06T10:58:15.870Z,17.80
2022-11-06T11:00:43.692Z,17.90
2022-11-06T11:03:24.283Z,17.98
2022-11-06T11:05:51.318Z,17.91
2022-11-06T11:08:51.952Z,18.09
2022-11-06T11:11:23.286Z,18.09
2022-11-06T11:13:51.882Z,18.14
2022-11-06T11:16:26.169Z,18.25
2022-11-06T11:18:54.006Z,18.25
2022-11-06T11:21:21.030Z,18.28
2022-11-06T11:24:11.972Z,18.14
2022-11-06T11:26:48.665Z,18.07
2022-11-06T11:29:23.946Z,18.07
2022-11-06T11:31:57.678Z,17.95
2022-11-06T11:34:28.502Z,17.96
2022-11-06T11:37:08.529Z,17.95
2022-11-06T11:39:44.377Z,17.94
2022-11-06T11:42:28.822Z,18.16
2022-11-06T11:45:11.059Z,18.16
2022-11-06T11:47:40.546Z,18.23
2022-11-06T11:50:17.137Z,18.37
2022-11-06T11:52:51.110Z,18.38
2022-11-06T11:55:22.856Z,18.56
2022-11-06T11:57:52.845Z,18.52
2022-11-06T12:00:22.965Z,18.46
2022-11-06T12:02:55.293Z,18.45
2022-11-06T12:05:41.300Z,18.44
2022-11-06T12:08:22.192Z,18.36
2022-11-06T12:10:50.327Z,18.41
2022-11-06T12:13:25.198Z,18.35
2022-11-06T12:16:04.744Z,18.38
2022-11-06T12:18:42.752Z,18.31
2022-11-06T12:21:33.146Z,18.26
2022-11-06T12:24:28.148Z,18.31
2022-11-06T12:27:13.592Z,18.32
2022-11-06T12:29:53.615Z,18.23
2022-11-06T12:32:40.051Z,18.21
2022-11-06T12:35:22.401Z,18.29
2022-11-06T12:38:04.917Z,18.37
2022-11-06T12:40:39.867Z,18.35
2022-11-06T12:43:37.253Z,18.32
2022-11-06T12:46:19.692Z,18.38
2022-11-06T12:48:56.050Z,18.43
2022-11-06T12:51:44.741Z,18.51
2022-11-06T12:54:24.735Z,18.56
2022-11-06T12:57:01.937Z,18.42
2022-11-06T12:59:54.673Z,18.53
2022-11-06T13:02:50.197Z,18.49
2022-11-06T13:05:29.004Z,18.53
2022-11-06T13:08:15.389Z,18.53
2022-11-06T13:11:01.759Z,18.50
2022-11-06T13:13:44.125Z,18.47
2022-11-06T13:16:14.072Z,18.51
2022-11-06T13:18:53.017Z,18.50
2022-11-06T13:21:39.812Z,18.47
2022-11-06T13:24:15.175Z,18.39
2022-11-06T13:27:02.239Z,18.41
2022-11-06T13:29:30.908Z,18.45
2022-11-06T13:32:03.332Z,18.38
2022-11-06T13:34:36.490Z,18.29
2022-11-06T13:37:12.700Z,18.31
2022-11-06T13:39:46.671Z,18.30
2022-11-06T13:42:42.447Z,18.38
2022-11-06T13:45:14.909Z,18.39
2022-11-06T13:47:57.413Z,18.37
2022-11-06T13:50:40.314Z,18.31
2022-11-06T13:53:27.650Z,18.22
2022-11-06T13:56:20.926Z,18.17
2022-11-06T13:58:51.375Z,18.16
2022-11-06T14:01:44.031Z,18.02
2022-11-06T14:04:35.889Z,18.02
2022-11-06T14:07:05.889Z,18.01
2022-11-06T14:09:36.230Z,17.99
2022-11-06T14:12:13.960Z,17.88
2022-11-06T14:14:42.651Z,17.96
2022-11-06T14:17:17.696Z,17.85
2022-11-06T14:19:50.783Z,17.88
2022-11-06T14:22:36.744Z,17.79
2022-11-06T14:25:30.335Z,17.78
2022-11-06T14:27:58.459Z,17.70
2022-11-06T14:30:57.807Z,17.71
2022-11-06T14:33:41.237Z,17.59
2022-11-06T14:36:35.620Z,17.54
2022-11-06T14:39:04.421Z,17.46
2022-11-06T14:41:34.202Z,17.46
2022-11-06T14:44:31.073Z,17.45
2022-11-06T14:47:02.565Z,17.30
2022-11-06T14:49:42.487Z,17.30
2022-11-06T14:52:16.052Z,17.23
2022-11-06T14:55:24.403Z,17.22
2022-11-06T14:57:53.689Z,17.19
2022-11-06T15:00:45.094Z,17.07
2022-11-06T15:03:52.613Z,17.01
2022-11-06T15:06:19.858Z,17.00
2022-11-06T15:08:46.886Z,16.96
2022-11-06T15:11:47.883Z,16.90
2022-11-06T15:14:15.287Z,16.80
2022-11-06T15:16:45.364Z,16.63
2022-11-06T15:19:19.571Z,16.57
2022-11-06T15:21:56.872Z,16.61
2022-11-06T15:28:05.125Z,16.59
2022-11-06T15:30:42.550Z,16.51
2022-11-06T15:33:16.758Z,16.50
2022-11-06T15:35:46.665Z,16.40
2022-11-06T15:38:37.959Z,16.38
2022-11-06T15:41:07.675Z,16.30
2022-11-06T15:43:39.155Z,16.28
2022-11-06T15:46:12.027Z,16.27
2022-11-06T15:48:51.073Z,16.24
2022-11-06T15:51:28.041Z,16.18
2022-11-06T15:53:55.772Z,16.24
2022-11-06T15:56:31.342Z,16.15
2022-11-06T15:59:24.828Z,16.17
2022-11-06T16:01:51.743Z,16.13
2022-11-06T16:04:24.120Z,16.08
2022-11-06T16:06:54.000Z,16.06
2022-11-06T16:09:29.793Z,16.00
2022-11-06T16:11:58.386Z,15.89
2022-11-06T16:14:25.272Z,15.86
2022-11-06T16:16:56.429Z,15.87
2022-11-06T16:19:23.262Z,15.94
2022-11-06T16:22:17.958Z,15.90
2022-11-06T16:25:00.380Z,15.87
2022-11-06T16:27:27.862Z,15.82
2022-11-06T16:30:01.649Z,15.78
2022-11-06T16:32:31.586Z,15.71
2022-11-06T16:35:00.173Z,15.83
2022-11-06T16:37:29.762Z,15.82
2022-11-06T16:40:00.209Z,15.81
2022-11-06T16:42:33.419Z,15.47
2022-11-06T16:45:02.021Z,15.70
2022-11-06T16:47:28.935Z,15.70
2022-11-06T16:49:57.771Z,15.71
2022-11-06T16:52:34.098Z,15.64
2022-11-06T16:55:17.151Z,15.63
2022-11-06T16:57:46.857Z,15.60
2022-11-06T17:00:19.784Z,15.58
2022-11-06T17:02:50.927Z,15.51
2022-11-06T17:05:19.428Z,15.43
2022-11-06T17:07:46.330Z,15.48
2022-11-06T17:10:35.131Z,15.48
2022-11-06T17:13:18.765Z,15.43
2022-11-06T17:15:49.416Z,15.37
2022-11-06T17:18:22.494Z,15.51
2022-11-06T17:20:58.057Z,15.48
2022-11-06T17:23:26.588Z,15.62
2022-11-06T17:25:57.217Z,15.61
2022-11-06T17:28:24.297Z,15.56
2022-11-06T17:30:51.836Z,15.60
2022-11-06T17:33:18.906Z,15.81
2022-11-06T17:35:48.525Z,15.77
2022-11-06T17:38:17.169Z,15.73
2022-11-06T17:40:45.373Z,15.77
2022-11-06T17:43:12.893Z,15.80
2022-11-06T17:45:42.239Z,15.81
2022-11-06T17:48:09.191Z,15.81
2022-11-06T17:50:56.213Z,15.82
2022-11-06T17:53:23.207Z,15.83
2022-11-06T17:55:50.128Z,15.73
2022-11-06T17:58:17.085Z,15.81
2022-11-06T18:00:44.440Z,15.84
2022-11-06T18:03:22.533Z,15.82
2022-11-06T18:05:49.540Z,15.80
2022-11-06T18:08:17.151Z,15.83
2022-11-06T18:10:44.428Z,15.79
2022-11-06T18:13:11.352Z,15.81
2022-11-06T18:15:38.414Z,15.83
2022-11-06T18:18:05.432Z,15.88
2022-11-06T18:20:32.250Z,15.81
2022-11-06T18:22:59.314Z,15.79
2022-11-06T18:25:26.142Z,15.77
2022-11-06T18:27:53.117Z,15.73
2022-11-06T18:30:19.943Z,15.62
2022-11-06T18:32:46.898Z,15.70
2022-11-06T18:35:13.668Z,15.69
2022-11-06T18:37:40.749Z,15.68
2022-11-06T18:40:08.411Z,15.72
2022-11-06T18:42:35.340Z,15.65
2022-11-06T18:45:02.209Z,15.70
2022-11-06T18:47:29.089Z,15.74
2022-11-06T18:49:56.281Z,15.70
2022-11-06T18:52:44.503Z,15.72
2022-11-06T18:55:10.297Z,15.66
2022-11-06T18:57:37.242Z,15.69
2022-11-06T19:00:05.201Z,15.74
2022-11-06T19:02:32.447Z,15.73
2022-11-06T19:04:59.882Z,15.75
2022-11-06T19:07:27.273Z,15.74
2022-11-06T19:09:54.347Z,15.71
2022-11-06T19:12:21.272Z,15.70
2022-11-06T19:14:48.285Z,15.69
2022-11-06T19:17:15.313Z,15.62
2022-11-06T19:19:42.388Z,15.68
2022-11-06T19:22:10.738Z,15.72
2022-11-06T19:24:37.681Z,15.67
2022-11-06T19:27:05.093Z,15.71
2022-11-06T19:29:32.450Z,15.64
2022-11-06T19:32:02.358Z,15.68
2022-11-06T19:34:30.754Z,15.67
2022-11-06T19:36:59.119Z,15.70
2022-11-06T19:39:26.001Z,15.68
2022-11-06T19:41:55.538Z,15.70
2022-11-06T19:44:22.407Z,15.68
2022-11-06T19:46:49.427Z,15.65
2022-11-06T19:49:22.543Z,15.70
2022-11-06T19:51:49.560Z,15.68
2022-11-06T19:54:17.151Z,15.72
2022-11-06T19:57:27.882Z,15.69
2022-11-06T19:59:31.012Z,15.66
2022-11-06T20:01:57.897Z,15.66
2022-11-06T20:04:25.145Z,15.65
2022-11-06T20:06:52.454Z,15.62
2022-11-06T20:09:19.629Z,15.61
2022-11-06T20:11:46.486Z,15.54
2022-11-06T20:14:16.673Z,15.61
2022-11-06T20:16:43.560Z,15.62
2022-11-06T20:19:10.964Z,15.65
2022-11-06T20:21:38.088Z,15.60
2022-11-06T20:24:05.260Z,15.61
2022-11-06T20:26:33.669Z,15.64
2022-11-06T20:29:01.203Z,15.60
2022-11-06T20:31:28.466Z,15.58
2022-11-06T20:33:57.696Z,15.68
2022-11-06T20:36:28.367Z,15.64
2022-11-06T20:38:59.449Z,15.59
2022-11-06T20:41:27.639Z,15.59
2022-11-06T20:43:55.599Z,15.59
2022-11-06T20:46:23.892Z,15.61
2022-11-06T20:48:51.554Z,15.64
2022-11-06T20:51:43.023Z,15.59
2022-11-06T20:54:30.211Z,15.49
2022-11-06T20:56:57.134Z,15.53
2022-11-06T20:59:23.997Z,15.50
2022-11-06T21:01:51.152Z,15.50
2022-11-06T21:04:18.284Z,15.50
2022-11-06T21:06:45.260Z,15.48
2022-11-06T21:09:12.338Z,15.47
2022-11-06T21:11:39.847Z,15.44
2022-11-06T21:14:06.712Z,15.46
2022-11-06T21:16:36.398Z,15.41
2022-11-06T21:19:04.980Z,15.44
2022-11-06T21:21:33.778Z,15.34
2022-11-06T21:24:02.252Z,15.35
2022-11-06T21:26:37.356Z,15.41
2022-11-06T21:29:07.428Z,15.32
2022-11-06T21:31:34.956Z,15.29
2022-11-06T21:34:03.550Z,15.27
2022-11-06T21:36:33.779Z,15.30
2022-11-06T21:39:07.937Z,15.11
2022-11-06T21:41:35.948Z,15.28
2022-11-06T21:44:05.152Z,15.25
2022-11-06T21:46:33.081Z,15.21
2022-11-06T21:49:00.204Z,15.28
2022-11-06T21:51:32.305Z,15.20
2022-11-06T21:54:18.706Z,15.20
2022-11-06T21:56:49.557Z,15.21
2022-11-06T21:59:19.805Z,15.19
2022-11-06T22:01:47.029Z,15.16
2022-11-06T22:04:14.405Z,15.16
2022-11-06T22:06:42.880Z,15.21
2022-11-06T22:09:11.557Z,15.19
2022-11-06T22:11:41.264Z,15.14
2022-11-06T22:14:12.107Z,15.09
2022-11-06T22:16:41.414Z,15.08
2022-11-06T22:19:09.884Z,14.98
2022-11-06T22:21:38.354Z,15.13
2022-11-06T22:24:06.296Z,15.13
2022-11-06T22:26:34.868Z,15.16
2022-11-06T22:29:05.502Z,15.17
2022-11-06T22:31:32.551Z,15.23
2022-11-06T22:33:59.831Z,15.19
2022-11-06T22:36:27.001Z,15.13
2022-11-06T22:38:54.333Z,15.14
2022-11-06T22:41:23.910Z,15.12
2022-11-06T22:43:52.001Z,15.18
2022-11-06T22:46:21.837Z,15.18
2022-11-06T22:48:49.931Z,15.15
2022-11-06T22:51:22.842Z,15.06
2022-11-06T22:53:50.640Z,15.06
2022-11-06T22:56:18.791Z,15.16
2022-11-06T22:58:46.064Z,15.11
2022-11-06T23:01:13.327Z,15.05
2022-11-06T23:03:40.608Z,15.15
2022-11-06T23:06:10.018Z,15.16
2022-11-06T23:08:44.197Z,15.14
2022-11-06T23:11:14.660Z,15.13
2022-11-06T23:13:41.598Z,15.19
2022-11-06T23:16:13.120Z,15.12
2022-11-06T23:18:40.052Z,15.07
2022-11-06T23:21:16.769Z,15.07
2022-11-06T23:23:45.636Z,15.06
2022-11-06T23:26:14.811Z,15.04
2022-11-06T23:28:42.695Z,15.04
2022-11-06T23:31:11.854Z,15.12
2022-11-06T23:33:39.478Z,15.12
2022-11-06T23:36:12.245Z,15.08
2022-11-06T23:38:39.768Z,15.05
2022-11-06T23:41:45.603Z,14.98
2022-11-06T23:44:33.477Z,15.02
2022-11-06T23:47:01.350Z,15.00
2022-11-06T23:49:28.413Z,15.05
2022-11-06T23:51:55.642Z,15.04
2022-11-06T23:54:22.754Z,15.00
2022-11-06T23:56:49.676Z,14.97
2022-11-06T23:59:16.899Z,14.98
